createdAt,value
2022-08-13T00:01:25.014Z,28.26
2022-08-13T00:03:59.812Z,28.24
2022-08-13T00:06:54.493Z,28.21
2022-08-13T00:09:24.357Z,28.17
2022-08-13T00:12:19.543Z,28.17
2022-08-13T00:14:48.233Z,28.20
2022-08-13T00:17:19.957Z,28.18
2022-08-13T00:19:52.413Z,28.14
2022-08-13T00:22:30.308Z,28.15
2022-08-13T00:25:09.611Z,28.10
2022-08-13T00:27:41.827Z,28.14
2022-08-13T00:30:34.318Z,28.09
2022-08-13T00:33:15.396Z,28.10
2022-08-13T00:35:48.256Z,28.09
2022-08-13T00:38:20.677Z,28.07
2022-08-13T00:40:58.533Z,28.07
2022-08-13T00:43:33.563Z,28.04
2022-08-13T00:46:01.108Z,28.07
2022-08-13T00:48:46.553Z,28.05
2022-08-13T00:51:43.066Z,28.04
2022-08-13T00:54:15.896Z,28.00
2022-08-13T00:56:44.368Z,28.00
2022-08-13T00:59:15.706Z,27.95
2022-08-13T01:01:49.201Z,27.93
2022-08-13T01:04:24.913Z,27.88
2022-08-13T01:06:59.025Z,27.84
2022-08-13T01:10:17.579Z,27.90
2022-08-13T01:12:20.835Z,27.89
2022-08-13T01:14:50.304Z,27.83
2022-08-13T01:17:17.844Z,27.91
2022-08-13T01:19:53.265Z,27.88
2022-08-13T01:22:29.915Z,27.85
2022-08-13T01:25:06.287Z,27.83
2022-08-13T01:27:38.399Z,27.83
2022-08-13T01:30:11.044Z,27.87
2022-08-13T01:32:54.957Z,27.84
2022-08-13T01:35:24.164Z,27.79
2022-08-13T01:37:59.759Z,27.81
2022-08-13T01:40:32.685Z,27.81
2022-08-13T01:42:59.415Z,27.76
2022-08-13T01:45:30.977Z,27.79
2022-08-13T01:48:19.503Z,27.70
2022-08-13T01:50:48.202Z,27.76
2022-08-13T01:53:22.250Z,27.74
2022-08-13T01:56:16.740Z,27.76
2022-08-13T01:59:00.990Z,27.70
2022-08-13T02:01:41.730Z,27.66
2022-08-13T02:04:22.482Z,27.68
2022-08-13T02:06:50.783Z,27.67
2022-08-13T02:09:59.723Z,27.65
2022-08-13T02:12:32.973Z,27.66
2022-08-13T02:15:04.481Z,27.65
2022-08-13T02:18:01.322Z,27.65
2022-08-13T02:20:21.181Z,27.58
2022-08-13T02:22:50.167Z,27.62
2022-08-13T02:25:22.179Z,27.64
2022-08-13T02:27:52.862Z,27.61
2022-08-13T02:30:28.990Z,27.60
2022-08-13T02:32:56.897Z,27.62
2022-08-13T02:35:24.530Z,27.59
2022-08-13T02:37:57.033Z,27.61
2022-08-13T02:40:43.047Z,27.59
2022-08-13T02:43:09.716Z,27.63
2022-08-13T02:45:37.406Z,27.56
2022-08-13T02:48:09.120Z,27.56
2022-08-13T02:50:43.751Z,27.61
2022-08-13T02:53:30.368Z,27.61
2022-08-13T02:55:58.755Z,27.60
2022-08-13T02:58:25.667Z,27.55
2022-08-13T03:00:56.067Z,27.48
2022-08-13T03:03:23.375Z,27.53
2022-08-13T03:05:58.926Z,27.49
2022-08-13T03:08:40.012Z,27.47
2022-08-13T03:11:10.896Z,27.47
2022-08-13T03:13:45.952Z,27.46
2022-08-13T03:16:18.636Z,27.47
2022-08-13T03:18:52.611Z,27.44
2022-08-13T03:21:41.411Z,27.40
2022-08-13T03:24:22.430Z,27.42
2022-08-13T03:27:00.816Z,27.45
2022-08-13T03:29:30.456Z,27.39
2022-08-13T03:32:15.521Z,27.40
2022-08-13T03:34:43.195Z,27.38
2022-08-13T03:37:11.757Z,27.34
2022-08-13T03:39:41.237Z,27.33
2022-08-13T03:42:09.207Z,27.34
2022-08-13T03:44:39.140Z,27.33
2022-08-13T03:47:30.955Z,27.37
2022-08-13T03:49:52.602Z,27.28
2022-08-13T03:52:20.163Z,27.23
2022-08-13T03:55:00.460Z,27.26
2022-08-13T03:57:27.391Z,27.21
2022-08-13T04:00:00.936Z,27.11
2022-08-13T04:02:39.663Z,27.17
2022-08-13T04:05:09.517Z,27.18
2022-08-13T04:07:41.498Z,27.18
2022-08-13T04:10:11.272Z,27.19
2022-08-13T04:12:38.720Z,27.11
2022-08-13T04:15:07.935Z,27.12
2022-08-13T04:17:36.647Z,27.13
2022-08-13T04:20:11.560Z,27.16
2022-08-13T04:22:42.228Z,27.13
2022-08-13T04:25:24.814Z,27.12
2022-08-13T04:28:03.490Z,27.09
2022-08-13T04:30:31.006Z,27.08
2022-08-13T04:33:22.359Z,27.13
2022-08-13T04:35:53.555Z,27.11
2022-08-13T04:38:25.302Z,27.07
2022-08-13T04:40:54.458Z,27.01
2022-08-13T04:43:24.156Z,27.08
2022-08-13T04:45:52.340Z,27.03
2022-08-13T04:48:18.997Z,27.07
2022-08-13T04:50:49.267Z,27.05
2022-08-13T04:53:22.009Z,26.99
2022-08-13T04:56:08.870Z,27.01
2022-08-13T04:58:37.128Z,26.94
2022-08-13T05:01:52.082Z,26.94
2022-08-13T05:03:56.802Z,26.98
2022-08-13T05:06:38.862Z,27.00
2022-08-13T05:09:09.708Z,27.02
2022-08-13T05:11:36.870Z,26.96
2022-08-13T05:14:03.756Z,26.98
2022-08-13T05:16:38.601Z,26.89
2022-08-13T05:19:05.936Z,26.90
2022-08-13T05:21:59.056Z,26.96
2022-08-13T05:26:20.866Z,26.97
2022-08-13T05:27:13.165Z,26.89
2022-08-13T05:29:51.716Z,26.86
2022-08-13T05:32:37.628Z,26.90
2022-08-13T05:35:11.225Z,26.83
2022-08-13T05:38:14.207Z,26.91
2022-08-13T05:40:36.986Z,26.91
2022-08-13T05:43:10.544Z,26.87
2022-08-13T05:45:41.629Z,26.89
2022-08-13T05:48:19.451Z,26.82
2022-08-13T05:50:47.826Z,26.93
2022-08-13T05:53:18.265Z,26.86
2022-08-13T05:56:10.136Z,26.92
2022-08-13T05:58:35.623Z,26.89
2022-08-13T06:01:20.914Z,26.91
2022-08-13T06:04:31.486Z,26.92
2022-08-13T06:06:35.583Z,26.93
2022-08-13T06:09:08.159Z,26.84
2022-08-13T06:12:08.968Z,26.92
2022-08-13T06:14:31.814Z,26.87
2022-08-13T06:16:59.751Z,26.86
2022-08-13T06:19:30.458Z,26.82
2022-08-13T06:22:01.984Z,26.84
2022-08-13T06:24:33.839Z,26.94
2022-08-13T06:27:14.567Z,26.86
2022-08-13T06:29:46.890Z,26.81
2022-08-13T06:32:35.684Z,26.85
2022-08-13T06:35:09.479Z,26.89
2022-08-13T06:37:38.415Z,26.85
2022-08-13T06:40:25.021Z,26.95
2022-08-13T06:42:57.331Z,26.93
2022-08-13T06:45:24.700Z,26.92
2022-08-13T06:47:52.951Z,26.97
2022-08-13T06:50:28.298Z,26.99
2022-08-13T06:54:03.891Z,27.05
2022-08-13T06:56:21.169Z,27.12
2022-08-13T06:58:31.834Z,27.08
2022-08-13T07:01:01.076Z,27.10
2022-08-13T07:03:42.922Z,27.16
2022-08-13T07:06:28.401Z,27.20
2022-08-13T07:09:00.491Z,27.27
2022-08-13T07:11:37.938Z,27.30
2022-08-13T07:14:06.207Z,27.32
2022-08-13T07:16:36.445Z,27.20
2022-08-13T07:19:03.448Z,27.23
2022-08-13T07:21:42.088Z,27.24
2022-08-13T07:24:49.882Z,27.28
2022-08-13T07:27:10.310Z,27.28
2022-08-13T07:29:51.407Z,27.30
2022-08-13T07:32:20.869Z,27.28
2022-08-13T07:35:00.349Z,27.37
2022-08-13T07:37:27.629Z,27.34
2022-08-13T07:39:57.017Z,27.29
2022-08-13T07:42:29.846Z,27.32
2022-08-13T07:46:26.671Z,27.33
2022-08-13T07:48:16.420Z,27.34
2022-08-13T07:50:40.475Z,27.38
2022-08-13T07:53:08.602Z,27.30
2022-08-13T07:56:07.194Z,27.33
2022-08-13T07:58:30.235Z,27.37
2022-08-13T08:00:58.714Z,27.42
2022-08-13T08:03:50.919Z,27.39
2022-08-13T08:06:21.010Z,27.44
2022-08-13T08:08:56.189Z,27.42
2022-08-13T08:11:41.618Z,27.40
2022-08-13T08:14:17.821Z,27.43
2022-08-13T08:17:00.528Z,27.41
2022-08-13T08:22:35.636Z,27.46
2022-08-13T08:24:03.889Z,27.45
2022-08-13T08:25:04.031Z,27.45
2022-08-13T08:27:52.461Z,27.45
2022-08-13T08:30:21.744Z,27.46
2022-08-13T08:32:55.764Z,27.51
2022-08-13T08:35:32.305Z,27.47
2022-08-13T08:38:33.601Z,27.48
2022-08-13T08:41:19.329Z,27.50
2022-08-13T08:43:49.872Z,27.54
2022-08-13T08:46:18.020Z,27.60
2022-08-13T08:48:47.991Z,27.56
2022-08-13T08:51:19.839Z,27.61
2022-08-13T08:54:06.464Z,27.60
2022-08-13T08:56:35.852Z,27.69
2022-08-13T08:59:03.600Z,27.67
2022-08-13T09:01:59.429Z,27.70
2022-08-13T09:04:46.851Z,27.69
2022-08-13T09:07:16.985Z,27.74
2022-08-13T09:09:44.536Z,27.75
2022-08-13T09:12:15.345Z,27.76
2022-08-13T09:14:42.190Z,27.79
2022-08-13T09:17:14.771Z,27.83
2022-08-13T09:19:47.711Z,27.79
2022-08-13T09:22:26.472Z,27.84
2022-08-13T09:24:58.286Z,27.91
2022-08-13T09:28:01.459Z,27.93
2022-08-13T09:30:23.038Z,27.95
2022-08-13T09:32:53.734Z,27.95
2022-08-13T09:35:20.843Z,28.02
2022-08-13T09:37:54.928Z,28.02
2022-08-13T09:40:39.552Z,27.98
2022-08-13T09:43:20.065Z,28.12
2022-08-13T09:46:05.877Z,28.27
2022-08-13T09:48:35.581Z,28.23
2022-08-13T09:51:04.025Z,28.20
2022-08-13T09:53:34.965Z,28.30
2022-08-13T09:56:02.100Z,28.27
2022-08-13T09:58:38.176Z,28.32
2022-08-13T10:01:20.071Z,28.37
2022-08-13T10:03:57.531Z,28.42
2022-08-13T10:06:29.729Z,28.44
2022-08-13T10:08:57.267Z,28.44
2022-08-13T10:12:18.904Z,28.45
2022-08-13T10:14:11.930Z,28.50
2022-08-13T10:16:40.785Z,28.49
2022-08-13T10:19:09.707Z,28.51
2022-08-13T10:21:39.851Z,28.53
2022-08-13T10:24:06.928Z,28.52
2022-08-13T10:26:34.393Z,28.51
2022-08-13T10:29:01.413Z,28.59
2022-08-13T10:31:46.817Z,28.54
2022-08-13T10:34:15.872Z,28.59
2022-08-13T10:37:04.793Z,28.64
2022-08-13T10:39:44.142Z,28.65
2022-08-13T10:42:19.843Z,28.65
2022-08-13T10:44:46.419Z,28.71
2022-08-13T10:47:28.796Z,28.69
2022-08-13T10:50:01.462Z,28.71
2022-08-13T10:52:28.104Z,28.73
2022-08-13T10:55:17.531Z,28.81
2022-08-13T10:57:59.851Z,28.82
2022-08-13T11:00:32.142Z,28.82
2022-08-13T11:02:59.185Z,28.85
2022-08-13T11:05:26.818Z,28.86
2022-08-13T11:07:54.868Z,28.91
2022-08-13T11:10:22.579Z,28.92
2022-08-13T11:12:58.982Z,28.93
2022-08-13T11:15:31.919Z,28.97
2022-08-13T11:18:14.402Z,29.01
2022-08-13T11:20:59.352Z,29.01
2022-08-13T11:23:25.910Z,29.06
2022-08-13T11:26:22.798Z,29.09
2022-08-13T11:28:39.936Z,29.12
2022-08-13T11:31:06.497Z,29.13
2022-08-13T11:33:41.022Z,29.15
2022-08-13T11:36:20.168Z,29.18
2022-08-13T11:38:47.043Z,29.21
2022-08-13T11:41:16.140Z,29.26
2022-08-13T11:43:52.085Z,29.29
2022-08-13T11:46:24.748Z,29.30
2022-08-13T11:48:53.708Z,29.33
2022-08-13T11:51:51.234Z,29.36
2022-08-13T11:54:31.827Z,29.40
2022-08-13T11:57:08.052Z,29.43
2022-08-13T11:59:41.465Z,29.46
2022-08-13T12:02:14.636Z,29.52
2022-08-13T12:04:42.076Z,29.55
2022-08-13T12:07:08.721Z,29.59
2022-08-13T12:09:43.845Z,29.63
2022-08-13T12:12:21.938Z,29.64
2022-08-13T12:14:50.634Z,29.64
2022-08-13T12:17:21.285Z,29.67
2022-08-13T12:20:19.810Z,29.74
2022-08-13T12:23:05.612Z,29.79
2022-08-13T12:26:04.181Z,29.72
2022-08-13T12:28:27.305Z,29.84
2022-08-13T12:31:18.343Z,29.93
2022-08-13T12:33:44.912Z,29.93
2022-08-13T12:36:16.720Z,30.00
2022-08-13T12:38:58.635Z,29.96
2022-08-13T12:41:42.105Z,29.92
2022-08-13T12:45:04.701Z,29.83
2022-08-13T12:47:01.142Z,29.98
2022-08-13T12:49:30.041Z,30.02
2022-08-13T12:51:57.979Z,30.01
2022-08-13T12:54:39.636Z,29.99
2022-08-13T12:57:27.437Z,30.02
2022-08-13T13:00:05.250Z,30.12
2022-08-13T13:02:34.611Z,30.17
2022-08-13T13:05:18.590Z,30.13
2022-08-13T13:08:08.025Z,30.14
2022-08-13T13:10:36.961Z,30.20
2022-08-13T13:13:04.508Z,30.21
2022-08-13T13:15:42.200Z,30.20
2022-08-13T13:18:39.946Z,30.28
2022-08-13T13:21:05.716Z,30.25
2022-08-13T13:23:39.545Z,30.33
2022-08-13T13:26:23.640Z,30.31
2022-08-13T13:28:53.383Z,30.34
2022-08-13T13:31:26.619Z,30.35
2022-08-13T13:33:55.501Z,30.41
2022-08-13T13:36:22.539Z,30.35
2022-08-13T13:38:55.751Z,30.47
2022-08-13T13:41:29.238Z,30.42
2022-08-13T13:44:37.117Z,30.45
2022-08-13T13:46:56.841Z,30.49
2022-08-13T13:49:25.552Z,30.48
2022-08-13T13:51:52.586Z,30.47
2022-08-13T13:54:24.180Z,30.55
2022-08-13T13:56:51.511Z,30.53
2022-08-13T13:59:20.797Z,30.56
2022-08-13T14:02:04.114Z,30.59
2022-08-13T14:04:47.642Z,30.59
2022-08-13T14:07:26.778Z,30.57
2022-08-13T14:10:09.533Z,30.64
2022-08-13T14:13:04.988Z,30.62
2022-08-13T14:15:24.861Z,30.62
2022-08-13T14:18:23.353Z,30.69
2022-08-13T14:20:48.704Z,30.67
2022-08-13T14:23:18.751Z,30.68
2022-08-13T14:25:55.664Z,30.70
2022-08-13T14:28:26.568Z,30.73
2022-08-13T14:30:54.245Z,30.77
2022-08-13T14:33:45.383Z,30.77
2022-08-13T14:36:08.508Z,30.74
2022-08-13T14:38:35.108Z,30.75
2022-08-13T14:41:17.374Z,30.89
2022-08-13T14:44:02.298Z,30.81
2022-08-13T14:46:32.286Z,30.77
2022-08-13T14:49:01.438Z,30.75
2022-08-13T14:52:03.669Z,30.81
2022-08-13T14:54:16.507Z,30.84
2022-08-13T14:56:48.072Z,30.82
2022-08-13T14:59:19.164Z,30.80
2022-08-13T15:01:49.115Z,30.89
2022-08-13T15:04:23.498Z,30.86
2022-08-13T15:06:54.635Z,30.84
2022-08-13T15:09:22.776Z,30.87
2022-08-13T15:11:52.986Z,30.80
2022-08-13T15:14:25.383Z,30.94
2022-08-13T15:16:53.762Z,30.82
2022-08-13T15:19:22.337Z,30.84
2022-08-13T15:21:51.661Z,30.89
2022-08-13T15:24:52.669Z,30.90
2022-08-13T15:27:34.661Z,30.91
2022-08-13T15:30:19.043Z,30.97
2022-08-13T15:33:03.227Z,30.83
2022-08-13T15:35:36.464Z,30.78
2022-08-13T15:38:20.777Z,30.83
2022-08-13T15:40:51.710Z,30.84
2022-08-13T15:43:36.637Z,30.82
2022-08-13T15:46:11.875Z,30.89
2022-08-13T15:48:46.300Z,30.91
2022-08-13T15:51:28.313Z,30.83
2022-08-13T15:53:57.536Z,30.97
2022-08-13T15:56:35.429Z,30.90
2022-08-13T15:59:05.798Z,30.91
2022-08-13T16:01:36.682Z,30.91
2022-08-13T16:04:13.370Z,30.92
2022-08-13T16:06:44.667Z,30.84
2022-08-13T16:09:16.636Z,30.84
2022-08-13T16:12:05.042Z,30.83
2022-08-13T16:14:35.151Z,30.78
2022-08-13T16:17:08.911Z,30.80
2022-08-13T16:19:52.561Z,30.77
2022-08-13T16:22:25.788Z,30.77
2022-08-13T16:24:55.431Z,30.79
2022-08-13T16:27:29.789Z,30.76
2022-08-13T16:30:09.828Z,30.69
2022-08-13T16:32:42.868Z,30.70
2022-08-13T16:35:16.042Z,30.75
2022-08-13T16:37:54.501Z,30.78
2022-08-13T16:40:21.958Z,30.78
2022-08-13T16:42:51.884Z,30.72
2022-08-13T16:45:19.913Z,30.70
2022-08-13T16:47:51.209Z,30.65
2022-08-13T16:50:19.178Z,30.67
2022-08-13T16:52:51.702Z,30.77
2022-08-13T16:55:24.511Z,30.73
2022-08-13T16:57:54.637Z,30.67
2022-08-13T17:00:26.935Z,30.71
2022-08-13T17:03:18.870Z,30.68
2022-08-13T17:06:10.792Z,30.71
2022-08-13T17:08:55.875Z,30.71
2022-08-13T17:11:32.947Z,30.78
2022-08-13T17:14:02.238Z,30.71
2022-08-13T17:16:28.851Z,30.62
2022-08-13T17:19:04.505Z,30.71
2022-08-13T17:21:48.280Z,30.68
2022-08-13T17:24:20.537Z,30.75
2022-08-13T17:26:57.326Z,30.73
2022-08-13T17:30:01.970Z,30.69
2022-08-13T17:32:13.431Z,30.71
2022-08-13T17:34:43.713Z,30.66
2022-08-13T17:37:17.649Z,30.54
2022-08-13T17:39:56.012Z,30.63
2022-08-13T17:44:01.325Z,30.57
2022-08-13T17:45:29.600Z,30.64
2022-08-13T17:48:03.702Z,30.65
2022-08-13T17:50:34.295Z,30.67
2022-08-13T17:53:08.867Z,30.67
2022-08-13T17:55:37.258Z,30.57
2022-08-13T17:58:17.467Z,30.59
2022-08-13T18:00:45.385Z,30.55
2022-08-13T18:03:21.545Z,30.51
2022-08-13T18:06:23.696Z,30.57
2022-08-13T18:08:39.602Z,30.48
2022-08-13T18:11:06.908Z,30.52
2022-08-13T18:14:02.802Z,30.59
2022-08-13T18:17:05.599Z,30.49
2022-08-13T18:19:16.697Z,30.35
2022-08-13T18:21:45.578Z,30.40
2022-08-13T18:24:18.504Z,30.49
2022-08-13T18:26:57.314Z,30.42
2022-08-13T18:29:59.969Z,30.46
2022-08-13T18:32:20.259Z,30.32
2022-08-13T18:34:53.749Z,30.36
2022-08-13T18:37:20.324Z,30.39
2022-08-13T18:39:48.182Z,30.21
2022-08-13T18:42:32.407Z,30.08
2022-08-13T18:45:24.832Z,29.94
2022-08-13T18:48:02.376Z,29.79
2022-08-13T18:50:31.244Z,29.64
2022-08-13T18:53:30.882Z,29.70
2022-08-13T18:56:02.545Z,29.56
2022-08-13T18:58:33.029Z,29.59
2022-08-13T19:01:03.114Z,29.50
2022-08-13T19:03:34.543Z,29.65
2022-08-13T19:06:19.807Z,29.49
2022-08-13T19:08:49.484Z,29.61
2022-08-13T19:11:18.573Z,29.45
2022-08-13T19:13:46.463Z,29.56
2022-08-13T19:16:15.702Z,29.49
2022-08-13T19:18:44.292Z,29.81
2022-08-13T19:21:51.342Z,29.90
2022-08-13T19:23:59.916Z,30.00
2022-08-13T19:26:31.052Z,30.04
2022-08-13T19:29:00.404Z,30.12
2022-08-13T19:31:34.159Z,30.10
2022-08-13T19:34:03.061Z,30.16
2022-08-13T19:36:34.945Z,30.13
2022-08-13T19:39:03.962Z,30.22
2022-08-13T19:41:54.051Z,30.16
2022-08-13T19:44:20.739Z,30.18
2022-08-13T19:46:58.185Z,30.11
2022-08-13T19:49:36.143Z,30.15
2022-08-13T19:52:16.246Z,30.20
2022-08-13T19:55:00.097Z,30.17
2022-08-13T19:57:31.552Z,30.24
2022-08-13T20:00:06.927Z,30.19
2022-08-13T20:02:36.038Z,30.14
2022-08-13T20:05:21.315Z,30.13
2022-08-13T20:07:52.215Z,30.07
2022-08-13T20:10:20.083Z,30.13
2022-08-13T20:12:47.207Z,30.07
2022-08-13T20:15:25.332Z,30.06
2022-08-13T20:18:00.769Z,30.07
2022-08-13T20:20:28.807Z,30.12
2022-08-13T20:22:58.225Z,30.08
2022-08-13T20:25:47.587Z,30.04
2022-08-13T20:28:17.604Z,30.12
2022-08-13T20:30:45.093Z,30.05
2022-08-13T20:33:27.507Z,30.02
2022-08-13T20:35:54.672Z,30.10
2022-08-13T20:38:34.681Z,30.08
2022-08-13T20:41:02.635Z,30.09
2022-08-13T20:43:40.156Z,30.02
2022-08-13T20:46:18.128Z,30.05
2022-08-13T20:48:45.431Z,30.00
2022-08-13T20:51:19.305Z,30.00
2022-08-13T20:53:48.700Z,29.97
2022-08-13T20:56:34.236Z,29.98
2022-08-13T21:00:46.781Z,29.97
2022-08-13T21:01:53.232Z,29.94
2022-08-13T21:04:21.771Z,29.98
2022-08-13T21:06:49.856Z,29.95
2022-08-13T21:09:19.108Z,29.93
2022-08-13T21:11:50.050Z,29.94
2022-08-13T21:14:16.885Z,29.89
2022-08-13T21:16:57.119Z,29.87
2022-08-13T21:19:37.061Z,29.87
2022-08-13T21:22:06.025Z,29.83
2022-08-13T21:24:36.342Z,29.80
2022-08-13T21:27:23.943Z,29.80
2022-08-13T21:29:56.991Z,29.80
2022-08-13T21:32:51.773Z,29.78
2022-08-13T21:35:19.032Z,29.78
2022-08-13T21:37:46.167Z,29.73
2022-08-13T21:40:19.961Z,29.73
2022-08-13T21:42:55.531Z,29.73
2022-08-13T21:45:22.326Z,29.71
2022-08-13T21:47:50.072Z,29.68
2022-08-13T21:50:30.351Z,29.65
2022-08-13T21:53:01.812Z,29.70
2022-08-13T21:55:33.090Z,29.70
2022-08-13T21:58:01.392Z,29.69
2022-08-13T22:00:34.265Z,29.65
2022-08-13T22:03:06.197Z,29.70
2022-08-13T22:05:59.298Z,29.65
2022-08-13T22:08:28.769Z,29.65
2022-08-13T22:10:56.431Z,29.59
2022-08-13T22:13:26.372Z,29.62
2022-08-13T22:15:57.788Z,29.59
2022-08-13T22:18:28.516Z,29.57
2022-08-13T22:20:56.048Z,29.61
2022-08-13T22:23:22.762Z,29.56
2022-08-13T22:25:53.391Z,29.61
2022-08-13T22:28:39.422Z,29.62
2022-08-13T22:31:07.453Z,29.62
2022-08-13T22:33:38.661Z,29.61
2022-08-13T22:36:16.818Z,29.57
2022-08-13T22:38:53.481Z,29.51
2022-08-13T22:41:21.555Z,29.44
2022-08-13T22:43:49.435Z,29.47
2022-08-13T22:46:17.410Z,29.50
2022-08-13T22:48:45.247Z,29.50
2022-08-13T22:51:18.098Z,29.44
2022-08-13T22:53:45.771Z,29.43
2022-08-13T22:56:13.547Z,29.43
2022-08-13T22:58:45.860Z,29.40
2022-08-13T23:01:13.042Z,29.44
2022-08-13T23:03:40.218Z,29.45
2022-08-13T23:06:36.160Z,29.31
2022-08-13T23:08:55.649Z,29.41
2022-08-13T23:11:23.563Z,29.38
2022-08-13T23:13:51.477Z,29.40
2022-08-13T23:16:20.058Z,29.37
2022-08-13T23:18:51.349Z,29.40
2022-08-13T23:21:18.064Z,29.37
2022-08-13T23:23:49.214Z,29.36
2022-08-13T23:26:17.940Z,29.33
2022-08-13T23:28:45.786Z,29.30
2022-08-13T23:31:13.193Z,29.24
2022-08-13T23:33:40.084Z,29.28
2022-08-13T23:36:09.987Z,29.30
2022-08-13T23:38:37.416Z,29.29
2022-08-13T23:41:05.275Z,29.26
2022-08-13T23:43:33.465Z,29.17
2022-08-13T23:46:00.754Z,29.13
2022-08-13T23:48:30.325Z,29.16
2022-08-13T23:50:57.227Z,29.17
2022-08-13T23:53:26.092Z,29.18
2022-08-13T23:55:53.338Z,29.17
2022-08-13T23:58:34.386Z,29.12
